Fry Canyon, Utah
Current Conditions -  °F | °C
As of 2:35 AM on Monday 24 Nov 2014 (Local Time) from KBDG Reporting Station
Clear Clear  
Wind Chill: 10°   Ceiling: Unl
Heat Index: 20°   Visibility: 10mi
Dew Point:   Wind: 8mph
Humidity: 63%   Direction: 350°N
Pressure: 30.22"   Gusts: NA
Location:  37.6208°N, 109.479°W
Report Text: KBDG 240935Z AUTO 35007KT 10SM CLR M07/M13 A3022 RMK AO1 T10691128
Loading
Personal Weather Stations






























Interactive Weather Map New forecast layout! Learn more

10-Day Weather Forecast

Advertisements
Track Severe Weather on mobile